createdAt,value
2022-11-25T00:03:18.820Z,3.70
2022-11-25T00:08:25.549Z,3.80
2022-11-25T00:13:32.979Z,3.80
2022-11-25T00:18:40.426Z,3.70
2022-11-25T00:23:53.656Z,3.50
2022-11-25T00:29:02.705Z,3.50
2022-11-25T00:34:11.483Z,3.40
2022-11-25T00:39:20.485Z,3.40
2022-11-25T00:44:37.727Z,3.70
2022-11-25T00:49:55.208Z,3.50
2022-11-25T00:55:02.019Z,3.50
2022-11-25T01:00:11.378Z,3.40
2022-11-25T01:05:18.824Z,3.30
2022-11-25T01:10:25.729Z,3.30
2022-11-25T01:15:33.255Z,3.30
2022-11-25T01:20:40.136Z,3.30
2022-11-25T01:25:47.238Z,3.20
2022-11-25T01:31:15.181Z,3.10
2022-11-25T01:36:22.288Z,3.10
2022-11-25T01:41:32.975Z,2.90
2022-11-25T01:46:59.600Z,3.10
2022-11-25T01:52:28.337Z,3.00
2022-11-25T01:57:45.517Z,3.00
2022-11-25T02:02:55.653Z,3.10
2022-11-25T02:08:03.500Z,3.10
2022-11-25T02:13:12.021Z,3.00
2022-11-25T02:18:18.895Z,3.00
2022-11-25T02:23:43.028Z,3.00
2022-11-25T02:28:50.449Z,3.00
2022-11-25T02:33:57.653Z,2.90
2022-11-25T02:39:05.349Z,2.60
2022-11-25T02:44:13.444Z,2.80
2022-11-25T02:49:20.389Z,2.70
2022-11-25T02:54:27.211Z,2.70
2022-11-25T02:59:34.873Z,2.60
2022-11-25T03:04:43.507Z,2.60
2022-11-25T03:09:50.435Z,2.70
2022-11-25T03:14:59.317Z,2.80
2022-11-25T03:20:08.595Z,2.70
2022-11-25T03:25:16.914Z,2.80
2022-11-25T03:30:27.259Z,2.80
2022-11-25T03:35:39.291Z,2.80
2022-11-25T03:40:47.661Z,2.80
2022-11-25T03:45:54.549Z,2.60
2022-11-25T03:51:01.445Z,2.70
2022-11-25T03:56:11.394Z,2.50
2022-11-25T04:01:32.012Z,2.60
2022-11-25T04:06:40.832Z,2.60
2022-11-25T04:12:05.172Z,2.80
2022-11-25T04:17:11.036Z,3.00
2022-11-25T04:22:17.797Z,3.00
2022-11-25T04:27:24.519Z,3.20
2022-11-25T04:32:31.265Z,3.30
2022-11-25T04:37:37.963Z,3.00
2022-11-25T04:42:44.842Z,3.00
2022-11-25T04:47:51.759Z,3.00
2022-11-25T04:52:58.463Z,2.90
2022-11-25T04:58:05.221Z,2.90
2022-11-25T05:03:12.492Z,2.80
2022-11-25T05:08:19.286Z,2.80
2022-11-25T05:13:26.271Z,2.80
2022-11-25T05:18:33.606Z,2.80
2022-11-25T05:23:40.352Z,2.70
2022-11-25T05:28:47.089Z,2.70
2022-11-25T05:33:54.314Z,2.50
2022-11-25T05:39:02.557Z,2.50
2022-11-25T05:44:09.991Z,2.40
2022-11-25T05:49:18.156Z,2.30
2022-11-25T05:54:25.772Z,2.40
2022-11-25T05:59:32.945Z,2.50
2022-11-25T06:04:39.863Z,2.60
2022-11-25T06:09:46.708Z,2.60
2022-11-25T06:14:54.033Z,2.70
2022-11-25T06:20:00.714Z,2.70
2022-11-25T06:25:09.774Z,2.50
2022-11-25T06:30:17.309Z,2.30
2022-11-25T06:35:24.594Z,2.20
2022-11-25T06:40:31.854Z,2.10
2022-11-25T06:45:38.646Z,2.30
2022-11-25T06:50:45.628Z,2.30
2022-11-25T06:55:53.788Z,2.50
2022-11-25T07:01:07.294Z,2.50
2022-11-25T07:06:18.826Z,2.50
2022-11-25T07:11:41.128Z,2.70
2022-11-25T07:16:48.236Z,2.70
2022-11-25T07:21:54.840Z,2.80
2022-11-25T07:27:01.515Z,2.90
2022-11-25T07:32:10.716Z,3.10
2022-11-25T07:37:18.071Z,3.40
2022-11-25T07:42:24.931Z,3.60
2022-11-25T07:47:31.696Z,3.80
2022-11-25T07:52:41.483Z,3.70
2022-11-25T07:57:49.007Z,3.60
2022-11-25T08:02:55.842Z,3.70
2022-11-25T08:08:02.804Z,3.80
2022-11-25T08:13:09.728Z,3.80
2022-11-25T08:18:17.044Z,3.90
2022-11-25T08:23:23.823Z,3.90
2022-11-25T08:28:30.573Z,4.00
2022-11-25T08:33:37.334Z,4.10
2022-11-25T08:38:44.835Z,3.90
2022-11-25T08:43:52.378Z,3.80
2022-11-25T08:48:59.523Z,4.00
2022-11-25T08:54:09.477Z,4.00
2022-11-25T08:59:16.344Z,4.10
2022-11-25T09:04:23.578Z,4.00
2022-11-25T09:09:30.929Z,4.10
2022-11-25T09:14:37.713Z,4.10
2022-11-25T09:19:44.622Z,4.20
2022-11-25T09:24:51.589Z,4.30
2022-11-25T09:29:58.458Z,4.40
2022-11-25T09:35:06.063Z,4.50
2022-11-25T09:40:38.482Z,4.60
2022-11-25T09:46:12.672Z,5.00
2022-11-25T09:51:35.233Z,4.80
2022-11-25T09:56:46.248Z,4.60
2022-11-25T10:02:03.227Z,4.60
2022-11-25T10:07:15.220Z,4.90
2022-11-25T10:12:38.732Z,5.10
2022-11-25T10:17:52.177Z,4.90
2022-11-25T10:23:05.804Z,5.30
2022-11-25T10:28:23.513Z,5.50
2022-11-25T10:33:46.195Z,5.60
2022-11-25T10:39:09.005Z,5.50
2022-11-25T10:44:32.018Z,5.50
2022-11-25T10:50:11.683Z,5.40
2022-11-25T10:55:26.639Z,5.40
2022-11-25T11:00:39.945Z,5.40
2022-11-25T11:05:51.067Z,5.80
2022-11-25T11:11:23.886Z,5.90
2022-11-25T11:16:43.575Z,5.80
2022-11-25T11:21:51.820Z,5.60
2022-11-25T11:27:26.112Z,5.40
2022-11-25T11:32:32.922Z,5.60
2022-11-25T11:37:44.733Z,5.70
2022-11-25T11:43:04.632Z,5.60
2022-11-25T11:48:33.448Z,5.60
2022-11-25T11:53:59.125Z,5.70
2022-11-25T11:59:36.987Z,5.80
2022-11-25T12:05:09.381Z,5.70
2022-11-25T12:10:50.177Z,5.80
2022-11-25T12:16:17.881Z,5.80
2022-11-25T12:21:50.187Z,5.70
2022-11-25T12:27:22.614Z,5.70
2022-11-25T12:32:51.939Z,5.70
2022-11-25T12:38:14.910Z,5.70
2022-11-25T12:43:29.429Z,5.70
2022-11-25T12:48:41.047Z,5.90
2022-11-25T12:54:23.726Z,5.80
2022-11-25T12:59:46.974Z,5.90
2022-11-25T13:05:32.880Z,6.10
2022-11-25T13:10:42.130Z,5.90
2022-11-25T13:15:51.006Z,6.20
2022-11-25T13:21:01.108Z,6.00
2022-11-25T13:26:36.550Z,6.30
2022-11-25T13:32:04.282Z,6.40
2022-11-25T13:37:42.703Z,6.40
2022-11-25T13:42:49.708Z,6.20
2022-11-25T13:47:58.153Z,6.00
2022-11-25T13:53:26.553Z,5.80
2022-11-25T13:58:35.060Z,5.70
2022-11-25T14:03:50.384Z,5.60
2022-11-25T14:09:07.630Z,5.60
2022-11-25T14:14:50.128Z,5.80
2022-11-25T14:20:31.102Z,5.70
2022-11-25T14:25:59.312Z,5.70
2022-11-25T14:31:18.445Z,5.60
2022-11-25T14:36:38.739Z,5.50
2022-11-25T14:41:55.898Z,5.60
2022-11-25T14:47:06.348Z,5.50
2022-11-25T14:52:18.917Z,5.50
2022-11-25T14:57:30.832Z,5.40
2022-11-25T15:02:42.030Z,5.20
2022-11-25T15:08:15.444Z,5.10
2022-11-25T15:13:41.773Z,5.00
2022-11-25T15:19:00.718Z,4.90
2022-11-25T15:24:10.710Z,4.70
2022-11-25T15:29:18.366Z,4.70
2022-11-25T15:34:26.244Z,4.60
2022-11-25T15:39:32.938Z,4.60
2022-11-25T15:44:44.315Z,4.50
2022-11-25T15:50:12.065Z,4.40
2022-11-25T15:55:38.003Z,4.30
2022-11-25T16:00:46.880Z,4.20
2022-11-25T16:05:59.229Z,4.20
2022-11-25T16:11:21.358Z,4.20
2022-11-25T16:16:32.448Z,4.20
2022-11-25T16:21:43.659Z,4.20
2022-11-25T16:27:02.643Z,4.20
2022-11-25T16:32:16.394Z,4.30
2022-11-25T16:37:22.924Z,4.30
2022-11-25T16:42:29.968Z,4.40
2022-11-25T16:47:36.648Z,4.40
2022-11-25T16:52:43.774Z,4.40
2022-11-25T16:57:51.460Z,4.30
2022-11-25T17:02:58.525Z,4.40
2022-11-25T17:08:06.066Z,4.40
2022-11-25T17:13:19.581Z,4.40
2022-11-25T17:18:26.482Z,4.40
2022-11-25T17:23:33.700Z,4.50
2022-11-25T17:28:40.383Z,4.50
2022-11-25T17:33:49.204Z,4.50
2022-11-25T17:38:56.648Z,4.60
2022-11-25T17:44:03.774Z,4.50
2022-11-25T17:49:16.671Z,4.30
2022-11-25T17:54:23.487Z,4.50
2022-11-25T17:59:33.153Z,4.60
2022-11-25T18:04:40.138Z,4.40
2022-11-25T18:09:47.615Z,4.40
2022-11-25T18:14:54.467Z,4.50
2022-11-25T18:20:01.203Z,4.30
2022-11-25T18:25:09.589Z,4.30
2022-11-25T18:30:26.403Z,4.30
2022-11-25T18:35:37.181Z,4.40
2022-11-25T18:40:50.431Z,4.40
2022-11-25T18:45:56.014Z,4.40
2022-11-25T18:51:03.022Z,4.50
2022-11-25T18:56:17.933Z,4.50
2022-11-25T19:01:25.444Z,4.50
2022-11-25T19:06:32.914Z,4.40
2022-11-25T19:11:43.727Z,4.40
2022-11-25T19:16:50.427Z,4.30
2022-11-25T19:21:58.789Z,4.30
2022-11-25T19:27:05.663Z,4.20
2022-11-25T19:32:19.855Z,4.10
2022-11-25T19:37:28.645Z,4.10
2022-11-25T19:42:36.369Z,4.10
2022-11-25T19:47:48.979Z,4.10
2022-11-25T19:52:56.796Z,4.10
2022-11-25T19:58:03.754Z,4.10
2022-11-25T20:03:26.328Z,4.00
2022-11-25T20:08:33.479Z,4.10
2022-11-25T20:13:45.152Z,4.30
2022-11-25T20:18:53.701Z,4.10
2022-11-25T20:24:01.390Z,4.10
2022-11-25T20:29:19.041Z,4.10
2022-11-25T20:34:28.812Z,4.40
2022-11-25T20:39:36.141Z,4.30
2022-11-25T20:44:42.765Z,4.30
2022-11-25T20:49:50.789Z,4.20
2022-11-25T20:54:57.984Z,4.00
2022-11-25T21:00:16.737Z,3.80
2022-11-25T21:05:25.571Z,3.70
2022-11-25T21:10:38.985Z,3.90
2022-11-25T21:15:46.585Z,4.00
2022-11-25T21:20:57.922Z,3.90
2022-11-25T21:26:14.749Z,3.90
2022-11-25T21:31:26.500Z,4.00
2022-11-25T21:36:34.324Z,4.10
2022-11-25T21:41:41.804Z,4.00
2022-11-25T21:46:48.854Z,3.90
2022-11-25T21:51:55.539Z,3.80
2022-11-25T21:57:02.739Z,3.70
2022-11-25T22:02:22.513Z,3.80
2022-11-25T22:07:31.081Z,3.90
2022-11-25T22:12:41.326Z,4.00
2022-11-25T22:17:49.189Z,3.90
2022-11-25T22:22:56.734Z,3.90
2022-11-25T22:28:03.794Z,4.00
2022-11-25T22:33:12.904Z,4.00
2022-11-25T22:38:20.524Z,3.90
2022-11-25T22:43:33.849Z,4.00
2022-11-25T22:48:42.014Z,4.00
2022-11-25T22:53:49.026Z,3.80
2022-11-25T22:58:57.393Z,3.90
2022-11-25T23:04:04.888Z,3.80
2022-11-25T23:09:20.058Z,3.80
2022-11-25T23:14:27.019Z,3.70
2022-11-25T23:19:34.048Z,3.70
2022-11-25T23:24:49.550Z,3.70
2022-11-25T23:29:56.764Z,3.70
2022-11-25T23:35:04.467Z,3.80
2022-11-25T23:40:21.216Z,3.70
2022-11-25T23:45:29.436Z,3.70
2022-11-25T23:50:37.106Z,3.70
2022-11-25T23:55:45.581Z,3.50
